Portada
METAR-TAF:

METAR-TAF

Aeroports :

Bamako, Mali

latitud: 12-32N, longitud: 007-57W, altitud: 380 m

Observació

L'informe es va fer fa 30 minuts, a les 05:00 UTC
Vent 15 kt del Nord/Nord-Oest
Temperatura 26°C
Humitat 48%
Pressió 1010 hPa
Visibilitat: 6000 m
Escasses núvols a una alçada de 4000 ft
pluja

METAR: GABS 200500Z 33015KT 6000 -RA FEW040 26/14 Q1010 NOSIG

Hora: 05:30 (05:30 UTC)

Pronòstic

L'informe es va fer fa 6 hores i 30 minuts, a les 23:00 UTC
Pronòstic vàlid del 20 a les 00 UTC al 21 a les 06 UTC
Vent 6 kt del Sud-Oest
Visibilitat: 8000 m
Probabilitat 30% :
Temporalment
l' 20 a les 09 UTC al 20 a les 14 UTC
Visibilitat: 4000 m
Pols estès

TAF: GABS 192300Z 2000/2106 23006KT 8000 NSC PROB30 TEMPO 2009/2014 4000 DU

Observacions i pronòstics meteorològics de més de 4000 aeroports (METAR i TAF).

Les estacions disponibles són els punts grocs i vermells al mapa.

Posi el ratolí al punt desitjat per veure el nom de l'estació.

Feu clic per veure les observacions i els pronòstics meteorològics.

Per canviar el mapa: feu clic els botons verds amb una creu de color negre per apropar; al botó verd amb un guió per allunyar la imatge; o en les fletxes verdes per a mapes adjacents.


METAR-TAF: